createdAt,value
2018-03-29T00:02:17.345Z,99.90
2018-03-29T00:04:44.578Z,99.90
2018-03-29T00:07:11.861Z,99.90
2018-03-29T00:09:38.826Z,99.90
2018-03-29T00:12:12.440Z,99.90
2018-03-29T00:14:39.528Z,99.90
2018-03-29T00:17:06.870Z,99.90
2018-03-29T00:19:34.075Z,99.90
2018-03-29T00:22:02.262Z,99.90
2018-03-29T00:24:29.501Z,99.90
2018-03-29T00:26:56.678Z,99.90
2018-03-29T00:29:23.966Z,99.90
2018-03-29T00:31:52.433Z,99.90
2018-03-29T00:34:19.711Z,99.90
2018-03-29T00:36:46.910Z,99.90
2018-03-29T00:39:14.209Z,99.90
2018-03-29T00:41:41.368Z,99.90
2018-03-29T00:44:08.693Z,99.90
2018-03-29T00:46:36.414Z,99.90
2018-03-29T00:49:03.710Z,99.90
2018-03-29T00:51:30.905Z,99.90
2018-03-29T00:53:57.968Z,99.90
2018-03-29T00:56:25.152Z,99.90
2018-03-29T00:58:52.353Z,99.90
2018-03-29T01:01:19.421Z,99.90
2018-03-29T01:03:50.457Z,99.90
2018-03-29T01:06:17.613Z,99.90
2018-03-29T01:08:44.862Z,99.90
2018-03-29T01:11:12.054Z,99.90
2018-03-29T01:13:40.512Z,99.90
2018-03-29T01:16:07.725Z,99.90
2018-03-29T01:18:34.957Z,99.90
2018-03-29T01:21:02.128Z,99.90
2018-03-29T01:23:32.641Z,99.90
2018-03-29T01:25:59.784Z,99.90
2018-03-29T01:28:26.982Z,99.90
2018-03-29T01:30:54.118Z,99.90
2018-03-29T01:33:22.497Z,99.90
2018-03-29T01:35:49.753Z,99.90
2018-03-29T01:38:16.965Z,99.90
2018-03-29T01:40:44.035Z,99.90
2018-03-29T01:43:12.498Z,99.90
2018-03-29T01:45:39.669Z,99.90
2018-03-29T01:48:06.799Z,99.90
2018-03-29T01:50:33.967Z,99.90
2018-03-29T01:53:04.932Z,99.90
2018-03-29T01:55:32.190Z,99.90
2018-03-29T01:57:59.399Z,99.90
2018-03-29T02:00:26.593Z,99.90
2018-03-29T02:02:58.385Z,99.90
2018-03-29T02:05:25.669Z,99.90
2018-03-29T02:07:52.926Z,99.90
2018-03-29T02:10:20.158Z,99.90
2018-03-29T02:12:51.326Z,99.90
2018-03-29T02:15:18.553Z,99.90
2018-03-29T02:17:45.743Z,99.90
2018-03-29T02:20:13.202Z,99.90
2018-03-29T02:22:43.741Z,99.90
2018-03-29T02:25:11.037Z,99.90
2018-03-29T02:27:38.251Z,99.90
2018-03-29T02:30:05.388Z,99.90
2018-03-29T02:32:32.657Z,99.90
2018-03-29T02:34:59.987Z,99.90
2018-03-29T02:37:27.049Z,99.90
2018-03-29T02:39:54.332Z,99.90
2018-03-29T02:42:22.913Z,99.90
2018-03-29T02:44:50.134Z,99.90
2018-03-29T02:47:17.254Z,99.90
2018-03-29T02:49:44.517Z,99.90
2018-03-29T02:52:12.862Z,99.90
2018-03-29T02:54:40.131Z,99.90
2018-03-29T02:57:07.440Z,99.90
2018-03-29T02:59:34.556Z,99.90
2018-03-29T03:02:01.832Z,99.90
2018-03-29T03:04:29.076Z,99.90
2018-03-29T03:06:56.258Z,99.90
2018-03-29T03:09:24.252Z,99.90
2018-03-29T03:11:54.539Z,99.90
2018-03-29T03:14:21.885Z,99.90
2018-03-29T03:16:49.209Z,99.90
2018-03-29T03:19:16.485Z,99.90
2018-03-29T03:21:46.665Z,99.90
2018-03-29T03:24:13.779Z,99.90
2018-03-29T03:26:40.980Z,99.90
2018-03-29T03:29:08.284Z,99.90
2018-03-29T03:31:35.706Z,99.90
2018-03-29T03:34:02.846Z,99.90
2018-03-29T03:36:30.079Z,99.90
2018-03-29T03:38:57.322Z,99.90
2018-03-29T03:41:25.750Z,99.90
2018-03-29T03:43:52.936Z,99.90
2018-03-29T03:46:20.213Z,99.90
2018-03-29T03:48:47.486Z,99.90
2018-03-29T03:51:15.776Z,99.90
2018-03-29T03:53:42.956Z,99.90
2018-03-29T03:56:10.157Z,99.90
2018-03-29T03:58:37.295Z,99.90
2018-03-29T04:01:04.493Z,99.90
2018-03-29T04:03:31.790Z,99.90
2018-03-29T04:05:59.108Z,99.90
2018-03-29T04:08:26.310Z,99.90
2018-03-29T04:10:53.539Z,99.90
2018-03-29T04:13:22.986Z,99.90
2018-03-29T04:15:50.157Z,99.90
2018-03-29T04:18:17.453Z,99.90
2018-03-29T04:20:44.570Z,99.90
2018-03-29T04:23:12.779Z,99.90
2018-03-29T04:25:40.093Z,99.90
2018-03-29T04:28:07.301Z,99.90
2018-03-29T04:30:35.160Z,99.90
2018-03-29T04:33:02.511Z,99.90
2018-03-29T04:35:29.670Z,99.90
2018-03-29T04:37:56.933Z,99.90
2018-03-29T04:40:24.145Z,99.90
2018-03-29T04:42:52.549Z,99.90
2018-03-29T04:45:19.770Z,99.90
2018-03-29T04:47:47.594Z,99.90
2018-03-29T04:50:14.758Z,99.90
2018-03-29T04:52:42.034Z,99.90
2018-03-29T04:55:09.262Z,99.90
2018-03-29T04:57:36.508Z,99.90
2018-03-29T05:00:03.601Z,99.90
2018-03-29T05:02:30.758Z,99.90
2018-03-29T05:04:58.243Z,99.90
2018-03-29T05:07:25.601Z,99.90
2018-03-29T05:09:52.773Z,99.90
2018-03-29T05:12:20.158Z,99.90
2018-03-29T05:14:47.373Z,99.90
2018-03-29T05:17:15.489Z,99.90
2018-03-29T05:19:43.285Z,99.90
2018-03-29T05:22:13.821Z,99.90
2018-03-29T05:24:41.072Z,99.90
2018-03-29T05:27:14.514Z,99.90
2018-03-29T05:29:41.779Z,99.90
2018-03-29T05:32:13.592Z,99.90
2018-03-29T05:34:40.897Z,99.90
2018-03-29T05:39:57.822Z,99.90
2018-03-29T05:42:28.847Z,99.90
2018-03-29T05:44:56.029Z,99.90
2018-03-29T05:47:23.970Z,99.90
2018-03-29T05:49:51.269Z,99.90
2018-03-29T05:52:19.527Z,99.90
2018-03-29T05:54:48.178Z,99.90
2018-03-29T05:57:16.050Z,99.90
2018-03-29T05:59:43.542Z,99.90
2018-03-29T06:02:11.723Z,99.90
2018-03-29T06:04:38.938Z,99.90
2018-03-29T06:07:05.905Z,99.90
2018-03-29T06:09:33.110Z,99.90
2018-03-29T06:12:01.394Z,99.90
2018-03-29T06:14:35.166Z,99.90
2018-03-29T06:17:02.486Z,99.90
2018-03-29T06:19:29.597Z,99.90
2018-03-29T06:21:56.923Z,99.90
2018-03-29T06:24:24.186Z,99.90
2018-03-29T06:26:51.378Z,99.90
2018-03-29T06:29:18.593Z,99.90
2018-03-29T06:31:49.575Z,99.90
2018-03-29T06:34:17.538Z,99.90
2018-03-29T06:36:44.702Z,99.90
2018-03-29T06:39:12.046Z,99.90
2018-03-29T06:41:43.746Z,99.90
2018-03-29T06:44:11.426Z,99.90
2018-03-29T06:46:39.575Z,99.90
2018-03-29T06:49:06.858Z,99.90
2018-03-29T06:51:34.364Z,99.90
2018-03-29T06:54:01.605Z,99.90
2018-03-29T06:56:28.774Z,99.90
2018-03-29T06:58:55.986Z,99.90
2018-03-29T07:01:26.087Z,99.90
2018-03-29T07:03:53.330Z,99.90
2018-03-29T07:06:20.644Z,99.90
2018-03-29T07:08:47.800Z,99.90
2018-03-29T07:11:19.312Z,99.90
2018-03-29T07:13:46.471Z,99.90
2018-03-29T07:16:13.763Z,99.90
2018-03-29T07:18:40.894Z,99.90
2018-03-29T07:21:13.967Z,99.90
2018-03-29T07:23:41.302Z,99.90
2018-03-29T07:26:08.589Z,99.90
2018-03-29T07:28:35.779Z,99.90
2018-03-29T07:31:03.117Z,99.90
2018-03-29T07:33:30.375Z,99.90
2018-03-29T07:35:57.585Z,99.90
2018-03-29T07:38:24.777Z,99.90
2018-03-29T07:40:54.973Z,99.90
2018-03-29T07:43:22.160Z,99.90
2018-03-29T07:45:50.178Z,99.90
2018-03-29T07:48:18.153Z,99.90
2018-03-29T07:50:48.946Z,99.90
2018-03-29T07:53:16.251Z,99.90
2018-03-29T07:55:43.241Z,99.90
2018-03-29T07:58:10.427Z,99.90
2018-03-29T08:00:41.066Z,99.90
2018-03-29T08:03:08.244Z,99.90
2018-03-29T08:05:35.348Z,99.90
2018-03-29T08:08:02.541Z,99.90
2018-03-29T08:10:33.982Z,99.90
2018-03-29T08:13:01.267Z,99.90
2018-03-29T08:15:28.946Z,99.90
2018-03-29T08:17:56.106Z,99.90
2018-03-29T08:20:24.486Z,99.90
2018-03-29T08:22:51.665Z,99.90
2018-03-29T08:25:18.806Z,99.90
2018-03-29T08:27:46.066Z,99.90
2018-03-29T08:30:13.386Z,99.90
2018-03-29T08:32:41.882Z,99.90
2018-03-29T08:35:09.085Z,99.90
2018-03-29T08:37:36.199Z,99.90
2018-03-29T08:40:03.610Z,99.90
2018-03-29T08:42:32.411Z,99.90
2018-03-29T08:44:59.665Z,99.90
2018-03-29T08:47:26.997Z,99.90
2018-03-29T08:49:54.296Z,99.90
2018-03-29T08:52:23.029Z,99.90
2018-03-29T08:54:50.350Z,99.90
2018-03-29T08:57:18.154Z,99.90
2018-03-29T08:59:45.495Z,99.90
2018-03-29T09:02:19.369Z,99.90
2018-03-29T09:04:47.229Z,99.90
2018-03-29T09:07:14.533Z,99.90
2018-03-29T09:09:41.852Z,99.90
2018-03-29T09:12:10.162Z,99.90
2018-03-29T09:14:37.333Z,99.90
2018-03-29T09:17:04.549Z,99.90
2018-03-29T09:19:31.709Z,99.90
2018-03-29T09:22:02.029Z,99.90
2018-03-29T09:24:29.234Z,99.90
2018-03-29T09:26:56.932Z,99.90
2018-03-29T09:29:24.689Z,99.90
2018-03-29T09:31:57.969Z,99.90
2018-03-29T09:34:25.283Z,99.90
2018-03-29T09:36:52.417Z,99.90
2018-03-29T09:39:19.718Z,99.90
2018-03-29T09:41:50.185Z,99.90
2018-03-29T09:44:17.466Z,99.90
2018-03-29T09:46:44.694Z,99.90
2018-03-29T09:49:12.469Z,99.90
2018-03-29T09:51:43.541Z,99.90
2018-03-29T09:54:10.825Z,99.90
2018-03-29T09:56:37.870Z,99.90
2018-03-29T09:59:05.087Z,99.90
2018-03-29T10:01:35.498Z,99.90
2018-03-29T10:04:08.701Z,99.90
2018-03-29T10:06:41.087Z,99.90
2018-03-29T10:09:08.215Z,99.90
2018-03-29T10:11:41.553Z,99.90
2018-03-29T10:14:08.976Z,99.90
2018-03-29T10:16:36.102Z,99.90
2018-03-29T10:19:03.303Z,99.90
2018-03-29T10:21:34.063Z,99.90
2018-03-29T10:24:01.158Z,99.90
2018-03-29T10:26:28.343Z,99.90
2018-03-29T10:28:55.682Z,99.90
2018-03-29T10:31:23.081Z,99.90
2018-03-29T10:33:50.217Z,99.90
2018-03-29T10:36:17.319Z,99.90
2018-03-29T10:38:44.593Z,99.90
2018-03-29T10:41:12.889Z,99.90
2018-03-29T10:43:40.104Z,99.70
2018-03-29T10:46:07.914Z,99.90
2018-03-29T10:48:35.190Z,98.70
2018-03-29T10:51:06.989Z,99.90
2018-03-29T10:53:34.173Z,95.80
2018-03-29T10:56:01.309Z,96.70
2018-03-29T10:58:29.088Z,99.30
2018-03-29T11:00:57.341Z,96.00
2018-03-29T11:03:24.660Z,97.70
2018-03-29T11:05:52.257Z,96.50
2018-03-29T11:08:20.157Z,98.20
2018-03-29T11:10:50.362Z,99.00
2018-03-29T11:13:17.561Z,95.70
2018-03-29T11:15:44.724Z,96.70
2018-03-29T11:18:11.942Z,95.30
2018-03-29T11:20:42.446Z,98.10
2018-03-29T11:23:09.633Z,96.00
2018-03-29T11:25:37.274Z,91.10
2018-03-29T11:28:04.425Z,94.10
2018-03-29T11:30:43.425Z,95.10
2018-03-29T11:33:10.672Z,93.40
2018-03-29T11:35:37.874Z,93.50
2018-03-29T11:38:05.058Z,93.90
2018-03-29T11:40:45.033Z,90.70
2018-03-29T11:43:12.082Z,92.60
2018-03-29T11:45:39.314Z,70.20
2018-03-29T11:48:06.530Z,82.60
2018-03-29T11:50:33.668Z,85.90
2018-03-29T11:53:00.743Z,77.90
2018-03-29T11:55:28.012Z,83.10
2018-03-29T11:57:55.274Z,63.70
2018-03-29T12:00:22.474Z,63.80
2018-03-29T12:02:49.765Z,66.10
2018-03-29T12:05:16.973Z,65.30
2018-03-29T12:07:44.362Z,69.20
2018-03-29T12:10:15.030Z,66.50
2018-03-29T12:12:42.501Z,60.30
2018-03-29T12:15:09.704Z,59.10
2018-03-29T12:17:37.248Z,57.90
2018-03-29T12:20:10.054Z,58.60
2018-03-29T12:22:37.381Z,62.30
2018-03-29T12:25:04.585Z,54.70
2018-03-29T12:27:32.129Z,54.70
2018-03-29T12:30:16.823Z,58.00
2018-03-29T12:32:43.886Z,59.10
2018-03-29T12:35:11.106Z,58.10
2018-03-29T12:37:38.345Z,60.10
2018-03-29T12:40:22.192Z,60.00
2018-03-29T12:42:49.510Z,56.30
2018-03-29T12:45:17.550Z,57.00
2018-03-29T12:47:44.733Z,57.00
2018-03-29T12:50:16.185Z,59.90
2018-03-29T12:52:43.425Z,59.30
2018-03-29T12:55:28.368Z,59.10
2018-03-29T12:58:10.019Z,56.50
2018-03-29T13:00:44.151Z,56.70
2018-03-29T13:03:11.375Z,55.50
2018-03-29T13:05:38.690Z,55.10
2018-03-29T13:08:05.946Z,52.30
2018-03-29T13:10:40.435Z,56.90
2018-03-29T13:13:07.578Z,57.70
2018-03-29T13:15:35.162Z,58.70
2018-03-29T13:18:02.332Z,58.90
2018-03-29T13:20:33.098Z,58.90
2018-03-29T13:23:01.484Z,56.50
2018-03-29T13:25:28.653Z,57.80
2018-03-29T13:27:55.862Z,62.60
2018-03-29T13:30:36.251Z,64.90
2018-03-29T13:33:03.566Z,62.60
2018-03-29T13:35:30.715Z,62.80
2018-03-29T13:37:58.223Z,65.20
2018-03-29T13:40:28.881Z,63.20
2018-03-29T13:42:56.062Z,67.70
2018-03-29T13:45:23.320Z,66.50
2018-03-29T13:47:50.978Z,68.50
2018-03-29T13:50:42.191Z,69.50
2018-03-29T13:53:09.470Z,66.90
2018-03-29T13:55:36.560Z,63.60
2018-03-29T13:58:03.754Z,66.30
2018-03-29T14:00:30.954Z,64.60
2018-03-29T14:02:58.124Z,63.60
2018-03-29T14:05:25.493Z,61.10
2018-03-29T14:07:52.766Z,94.30
2018-03-29T14:10:32.058Z,95.20
2018-03-29T14:12:59.595Z,90.90
2018-03-29T14:15:26.854Z,95.00
2018-03-29T14:17:54.229Z,96.50
2018-03-29T14:20:24.556Z,97.20
2018-03-29T14:22:51.712Z,96.00
2018-03-29T14:25:18.937Z,92.40
2018-03-29T14:27:46.256Z,91.40
2018-03-29T14:30:17.197Z,80.70
2018-03-29T14:32:44.550Z,93.60
2018-03-29T14:35:11.840Z,99.90
2018-03-29T14:37:39.024Z,99.90
2018-03-29T14:40:10.515Z,99.90
2018-03-29T14:42:37.545Z,99.90
2018-03-29T14:45:04.726Z,99.90
2018-03-29T14:47:32.050Z,99.90
2018-03-29T14:50:23.134Z,99.90
2018-03-29T14:52:50.389Z,99.90
2018-03-29T14:55:18.381Z,99.90
2018-03-29T14:57:46.433Z,99.90
2018-03-29T15:00:18.138Z,99.90
2018-03-29T15:02:45.947Z,99.90
2018-03-29T15:05:13.009Z,99.90
2018-03-29T15:07:41.118Z,99.90
2018-03-29T15:10:14.455Z,99.90
2018-03-29T15:12:41.607Z,99.90
2018-03-29T15:15:08.926Z,99.90
2018-03-29T15:17:36.282Z,99.90
2018-03-29T15:20:11.682Z,99.90
2018-03-29T15:22:38.949Z,99.90
2018-03-29T15:25:06.127Z,99.90
2018-03-29T15:27:33.319Z,99.90
2018-03-29T15:30:00.720Z,99.90
2018-03-29T15:32:27.808Z,99.90
2018-03-29T15:34:56.588Z,99.90
2018-03-29T15:37:23.974Z,99.90
2018-03-29T15:39:57.719Z,99.90
2018-03-29T15:42:25.011Z,99.90
2018-03-29T15:44:52.169Z,99.90
2018-03-29T15:47:19.426Z,99.90
2018-03-29T15:49:50.474Z,99.90
2018-03-29T15:52:17.839Z,99.90
2018-03-29T15:54:45.068Z,99.90
2018-03-29T15:57:12.276Z,99.90
2018-03-29T15:59:45.626Z,99.90
2018-03-29T16:02:12.963Z,99.90
2018-03-29T16:04:40.246Z,99.90
2018-03-29T16:07:08.457Z,99.90
2018-03-29T16:09:39.274Z,99.90
2018-03-29T16:12:07.260Z,99.90
2018-03-29T16:14:34.541Z,99.90
2018-03-29T16:17:01.642Z,99.90
2018-03-29T16:19:32.279Z,99.90
2018-03-29T16:21:59.529Z,99.90
2018-03-29T16:24:26.805Z,99.90
2018-03-29T16:26:54.599Z,99.90
2018-03-29T16:29:25.429Z,99.90
2018-03-29T16:31:52.602Z,99.90
2018-03-29T16:34:20.574Z,99.90
2018-03-29T16:36:48.659Z,99.90
2018-03-29T16:39:15.843Z,99.90
2018-03-29T16:41:42.956Z,99.90
2018-03-29T16:44:10.809Z,99.90
2018-03-29T16:46:38.126Z,99.90
2018-03-29T16:49:05.380Z,99.90
2018-03-29T16:51:32.545Z,99.90
2018-03-29T16:53:59.825Z,99.90
2018-03-29T16:56:27.173Z,99.90
2018-03-29T16:58:54.243Z,99.90
2018-03-29T17:01:22.339Z,99.90
2018-03-29T17:03:49.540Z,99.90
2018-03-29T17:06:16.795Z,99.90
2018-03-29T17:08:45.119Z,99.90
2018-03-29T17:11:15.730Z,99.90
2018-03-29T17:13:43.041Z,99.90
2018-03-29T17:16:11.945Z,99.90
2018-03-29T17:18:39.139Z,99.90
2018-03-29T17:21:07.520Z,99.90
2018-03-29T17:23:34.890Z,99.90
2018-03-29T17:26:01.954Z,99.90
2018-03-29T17:28:29.241Z,99.90
2018-03-29T17:30:56.518Z,99.90
2018-03-29T17:33:24.021Z,99.90
2018-03-29T17:35:51.288Z,99.90
2018-03-29T17:38:18.704Z,99.90
2018-03-29T17:40:49.615Z,99.90
2018-03-29T17:43:17.011Z,99.90
2018-03-29T17:45:45.100Z,99.90
2018-03-29T17:48:12.408Z,99.90
2018-03-29T17:50:44.160Z,99.90
2018-03-29T17:53:13.858Z,99.90
2018-03-29T17:55:42.700Z,99.90
2018-03-29T17:58:09.903Z,99.90
2018-03-29T18:00:38.264Z,99.90
2018-03-29T18:03:05.540Z,99.90
2018-03-29T18:05:32.575Z,99.90
2018-03-29T18:07:59.751Z,99.90
2018-03-29T18:10:30.138Z,99.90
2018-03-29T18:12:58.207Z,99.90
2018-03-29T18:15:25.451Z,99.90
2018-03-29T18:17:54.649Z,99.90
2018-03-29T18:20:26.093Z,99.90
2018-03-29T18:22:54.615Z,99.90
2018-03-29T18:25:22.878Z,99.90
2018-03-29T18:27:50.177Z,99.90
2018-03-29T18:30:21.035Z,99.90
2018-03-29T18:32:48.149Z,99.90
2018-03-29T18:35:16.690Z,99.90
2018-03-29T18:37:44.659Z,99.90
2018-03-29T18:40:16.223Z,99.90
2018-03-29T18:42:43.353Z,99.90
2018-03-29T18:45:10.659Z,99.90
2018-03-29T18:47:37.885Z,99.90
2018-03-29T18:50:11.220Z,99.90
2018-03-29T18:52:38.380Z,99.90
2018-03-29T18:55:06.060Z,99.90
2018-03-29T18:57:33.336Z,99.90
2018-03-29T19:00:01.691Z,99.90
2018-03-29T19:02:29.019Z,99.90
2018-03-29T19:04:56.228Z,99.90
2018-03-29T19:07:23.530Z,99.90
2018-03-29T19:09:51.453Z,99.90
2018-03-29T19:12:18.767Z,99.90
2018-03-29T19:14:46.054Z,99.90
2018-03-29T19:17:13.148Z,99.90
2018-03-29T19:19:43.503Z,99.90
2018-03-29T19:22:11.732Z,99.90
2018-03-29T19:24:39.549Z,99.90
2018-03-29T19:27:06.814Z,99.90
2018-03-29T19:29:35.972Z,99.90
2018-03-29T19:32:03.175Z,99.90
2018-03-29T19:34:31.233Z,99.90
2018-03-29T19:36:58.948Z,99.90
2018-03-29T19:39:26.383Z,99.90
2018-03-29T19:44:46.295Z,99.90
2018-03-29T19:47:13.647Z,99.90
2018-03-29T19:49:44.106Z,99.90
2018-03-29T19:52:11.919Z,99.90
2018-03-29T19:54:39.307Z,99.90
2018-03-29T19:57:06.665Z,99.90
2018-03-29T19:59:37.634Z,99.90
2018-03-29T20:02:04.914Z,99.90
2018-03-29T20:04:32.210Z,99.90
2018-03-29T20:07:00.250Z,99.90
2018-03-29T20:09:33.501Z,99.90
2018-03-29T20:12:00.782Z,99.90
2018-03-29T20:14:27.924Z,99.90
2018-03-29T20:16:55.143Z,99.90
2018-03-29T20:19:23.651Z,99.90
2018-03-29T20:21:50.969Z,99.90
2018-03-29T20:24:19.145Z,99.90
2018-03-29T20:26:46.502Z,99.90
2018-03-29T20:29:13.886Z,99.90
2018-03-29T20:31:41.150Z,99.90
2018-03-29T20:34:08.447Z,99.90
2018-03-29T20:36:35.697Z,99.90
2018-03-29T20:39:07.141Z,99.90
2018-03-29T20:41:34.347Z,99.90
2018-03-29T20:44:01.586Z,99.90
2018-03-29T20:46:28.898Z,99.90
2018-03-29T20:49:00.864Z,99.90
2018-03-29T20:51:28.128Z,99.90
2018-03-29T20:53:55.454Z,99.90
2018-03-29T20:56:22.832Z,99.90
2018-03-29T20:58:54.834Z,99.90
2018-03-29T21:01:22.138Z,99.90
2018-03-29T21:03:49.506Z,99.90
2018-03-29T21:06:16.601Z,99.90
2018-03-29T21:08:44.932Z,99.90
2018-03-29T21:11:12.175Z,99.90
2018-03-29T21:13:39.389Z,99.90
2018-03-29T21:16:06.706Z,99.90
2018-03-29T21:18:33.935Z,99.90
2018-03-29T21:21:01.093Z,99.90
2018-03-29T21:23:28.374Z,99.90
2018-03-29T21:25:55.524Z,99.90
2018-03-29T21:28:22.833Z,99.90
2018-03-29T21:30:50.060Z,99.90
2018-03-29T21:33:17.255Z,99.90
2018-03-29T21:35:45.384Z,99.90
2018-03-29T21:38:12.589Z,99.90
2018-03-29T21:40:39.925Z,99.90
2018-03-29T21:43:07.280Z,99.90
2018-03-29T21:45:35.053Z,99.90
2018-03-29T21:48:02.414Z,99.90
2018-03-29T21:50:33.474Z,99.90
2018-03-29T21:53:00.808Z,99.90
2018-03-29T21:55:28.002Z,99.90
2018-03-29T21:57:55.448Z,99.90
2018-03-29T22:00:22.534Z,99.90
2018-03-29T22:02:49.999Z,99.90
2018-03-29T22:05:17.112Z,99.90
2018-03-29T22:07:44.313Z,99.90
2018-03-29T22:10:12.566Z,99.90
2018-03-29T22:12:39.821Z,99.90
2018-03-29T22:15:06.762Z,99.90
2018-03-29T22:17:34.038Z,99.90
2018-03-29T22:20:02.449Z,99.90
2018-03-29T22:22:29.639Z,99.90
2018-03-29T22:24:56.861Z,99.90
2018-03-29T22:27:24.130Z,99.90
2018-03-29T22:29:51.216Z,99.90
2018-03-29T22:32:18.524Z,99.90
2018-03-29T22:34:45.716Z,99.90
2018-03-29T22:37:13.113Z,99.90
2018-03-29T22:39:41.449Z,99.90
2018-03-29T22:42:08.688Z,99.90
2018-03-29T22:44:36.030Z,99.90
2018-03-29T22:47:03.265Z,99.90
2018-03-29T22:49:41.269Z,99.90
2018-03-29T22:52:08.304Z,99.90
2018-03-29T22:54:35.426Z,99.90
2018-03-29T22:57:02.738Z,99.90
2018-03-29T22:59:31.093Z,99.90
2018-03-29T23:01:58.342Z,99.90
2018-03-29T23:04:25.561Z,99.90
2018-03-29T23:06:52.842Z,99.90
2018-03-29T23:09:20.301Z,99.90
2018-03-29T23:11:47.465Z,99.90
2018-03-29T23:14:14.569Z,99.90
2018-03-29T23:16:41.877Z,99.90
2018-03-29T23:19:10.476Z,99.90
2018-03-29T23:21:43.593Z,99.90
2018-03-29T23:24:10.624Z,99.90
2018-03-29T23:26:37.667Z,99.90
2018-03-29T23:29:04.969Z,99.90
2018-03-29T23:31:32.128Z,99.90
2018-03-29T23:33:59.333Z,99.90
2018-03-29T23:36:26.501Z,99.90
2018-03-29T23:38:53.751Z,99.90
2018-03-29T23:41:20.949Z,99.90
2018-03-29T23:43:48.921Z,99.90
2018-03-29T23:46:16.821Z,99.90
2018-03-29T23:48:45.361Z,99.90
2018-03-29T23:51:12.543Z,99.90
2018-03-29T23:53:39.705Z,99.90
2018-03-29T23:56:06.985Z,99.90
2018-03-29T23:58:36.098Z,99.90
